Time;durP1;ratioP1;P1;durP2;ratioP2;P2;SDS_P1;SDS_P2;PMS_P1;PMS_P2;Temp;Humidity;BMP_temperature;BMP_pressure;BME280_temperature;BME280_humidity;BME280_pressure;Samples;Min_cycle;Max_cycle;Signal;HPM_P1;HPM_P2
2021/01/30 00:02:33;;;;;;;18.47;10.10;;;;;;;-1.39;89.48;98642.72;10497432;28;20175;-58
2021/01/30 00:07:34;;;;;;;21.73;11.27;;;;;;;-1.35;89.70;98639.06;10497172;28;20226;-57
2021/01/30 00:12:34;;;;;;;16.50;10.77;;;;;;;-1.29;90.21;98638.78;10497843;28;20281;-57
2021/01/30 00:17:34;;;;;;;18.27;11.10;;;;;;;-1.25;90.29;98629.91;10496758;28;20179;-57
2021/01/30 00:22:35;;;;;;;19.27;10.87;;;;;;;-1.25;90.02;98624.69;10496671;28;20184;-57
2021/01/30 00:27:36;;;;;;;19.50;11.43;;;;;;;-1.22;89.71;98624.56;10496497;28;20216;-57
2021/01/30 00:32:36;;;;;;;20.97;12.03;;;;;;;-1.20;89.83;98627.94;10496358;28;20211;-58
2021/01/30 00:37:37;;;;;;;20.90;11.40;;;;;;;-1.19;89.41;98624.41;10496745;28;20197;-57
2021/01/30 00:42:38;;;;;;;20.60;11.93;;;;;;;-1.20;89.14;98617.47;10496048;28;20526;-57
2021/01/30 00:47:38;;;;;;;20.67;11.60;;;;;;;-1.16;89.50;98618.19;10495549;28;20179;-57
2021/01/30 00:52:42;;;;;;;28.17;13.30;;;;;;;-1.17;89.58;98609.47;10496079;28;20306;-57
2021/01/30 00:57:43;;;;;;;23.37;13.60;;;;;;;-1.18;89.56;98605.16;10477333;28;20651;-57
2021/01/30 01:02:44;;;;;;;23.90;13.20;;;;;;;-1.19;90.11;98608.69;10495705;28;20179;-57
2021/01/30 01:07:45;;;;;;;24.30;13.70;;;;;;;-1.23;89.56;98611.53;10495283;28;20214;-58
2021/01/30 01:12:46;;;;;;;28.23;16.13;;;;;;;-1.25;90.51;98602.91;10494837;28;20556;-58
2021/01/30 01:17:47;;;;;;;34.30;17.50;;;;;;;-1.29;90.35;98615.25;10476816;28;20189;-58
2021/01/30 01:22:49;;;;;;;31.50;15.67;;;;;;;-1.33;90.48;98607.63;10495256;28;20187;-58
2021/01/30 01:27:50;;;;;;;29.53;15.07;;;;;;;-1.37;90.75;98599.06;10494567;28;20692;-58
2021/01/30 01:32:52;;;;;;;30.20;13.50;;;;;;;-1.39;90.23;98603.50;10494583;28;20258;-58
2021/01/30 01:37:52;;;;;;;22.37;13.53;;;;;;;-1.47;90.71;98603.84;10476862;28;20178;-58
2021/01/30 01:43:01;;;;;;;26.57;15.23;;;;;;;-1.48;91.73;98602.13;10494884;28;20186;-57
2021/01/30 01:48:17;;;;;;;23.60;12.73;;;;;;;-1.57;91.56;98609.53;10494619;28;20175;-58
2021/01/30 01:53:22;;;;;;;25.97;12.33;;;;;;;-1.68;92.06;98614.34;10476554;28;20215;-58
2021/01/30 01:58:23;;;;;;;19.43;11.30;;;;;;;-1.86;92.67;98595.91;10476607;28;20190;-58
2021/01/30 02:03:26;;;;;;;22.87;12.10;;;;;;;-1.73;91.88;98611.09;10459884;28;20183;-58
2021/01/30 02:08:27;;;;;;;20.23;11.63;;;;;;;-1.72;92.45;98604.94;10475821;28;20272;-58
2021/01/30 02:13:32;;;;;;;17.23;10.60;;;;;;;-1.78;92.87;98592.13;10493344;28;20203;-58
2021/01/30 02:18:54;;;;;;;21.20;11.70;;;;;;;-1.81;92.57;98593.09;10494217;28;20243;-59
2021/01/30 02:24:26;;;;;;;22.03;11.90;;;;;;;-1.81;93.13;98599.16;10494088;28;20175;-59
2021/01/30 02:29:42;;;;;;;21.33;11.87;;;;;;;-1.78;92.95;98603.41;10475484;28;20555;-58
2021/01/30 02:34:46;;;;;;;22.70;12.47;;;;;;;-1.80;93.05;98605.25;10493777;28;20185;-59
2021/01/30 02:39:58;;;;;;;24.27;13.17;;;;;;;-1.75;93.06;98592.84;10493871;28;20171;-59
2021/01/30 02:45:11;;;;;;;26.77;13.77;;;;;;;-1.72;93.72;98597.94;10494825;28;20175;-59
2021/01/30 02:50:16;;;;;;;23.83;13.03;;;;;;;-1.67;93.62;98595.13;10500687;28;20275;-58
2021/01/30 02:55:18;;;;;;;28.83;13.27;;;;;;;-1.70;93.82;98579.59;10500851;28;20179;-59
2021/01/30 03:00:22;;;;;;;25.93;13.20;;;;;;;-1.67;94.35;98595.13;10482596;28;20218;-59
2021/01/30 03:05:23;;;;;;;26.97;14.23;;;;;;;-1.65;94.04;98593.28;10500429;28;20175;-59
2021/01/30 03:10:34;;;;;;;22.20;11.63;;;;;;;-1.69;94.79;98602.22;10456788;28;20313;-59
2021/01/30 03:15:44;;;;;;;22.30;12.33;;;;;;;-1.82;94.82;98592.25;10457991;28;20179;-59
2021/01/30 03:20:46;;;;;;;24.50;12.87;;;;;;;-1.93;94.70;98589.22;10458482;28;20232;-59
2021/01/30 03:25:48;;;;;;;25.27;13.20;;;;;;;-2.01;95.40;98590.47;10456500;28;20598;-57
2021/01/30 03:30:48;;;;;;;21.33;12.03;;;;;;;-2.03;96.04;98593.13;10456653;28;20341;-57
2021/01/30 03:35:49;;;;;;;23.13;12.23;;;;;;;-2.07;96.84;98591.59;10457570;28;20575;-57
2021/01/30 03:40:49;;;;;;;23.37;12.40;;;;;;;-2.10;96.40;98591.69;10457252;28;20178;-57
2021/01/30 03:45:50;;;;;;;20.27;12.37;;;;;;;-2.14;96.93;98584.88;10456783;28;20187;-58
2021/01/30 03:50:51;;;;;;;27.87;12.10;;;;;;;-2.12;97.03;98572.63;10457041;28;20191;-59
2021/01/30 03:55:51;;;;;;;21.97;12.83;;;;;;;-2.05;96.34;98581.06;10456039;28;20194;-59
2021/01/30 04:00:52;;;;;;;32.57;14.10;;;;;;;-2.05;96.04;98576.66;10457019;28;20182;-58
2021/01/30 04:05:52;;;;;;;23.90;13.60;;;;;;;-2.05;96.53;98583.69;10456954;28;20527;-59
2021/01/30 04:10:53;;;;;;;25.27;12.20;;;;;;;-2.07;95.72;98572.44;10490849;28;20251;-58
2021/01/30 04:15:53;;;;;;;26.90;13.70;;;;;;;-2.05;96.07;98574.06;10497131;28;20205;-57
2021/01/30 04:20:54;;;;;;;23.13;11.63;;;;;;;-2.04;96.74;98573.13;10496529;28;20174;-57
2021/01/30 04:25:54;;;;;;;23.63;12.80;;;;;;;-2.02;96.49;98571.31;10497214;28;20202;-57
2021/01/30 04:30:55;;;;;;;23.60;12.73;;;;;;;-2.01;95.86;98570.41;10496187;28;20691;-58
2021/01/30 04:35:55;;;;;;;28.60;14.07;;;;;;;-2.05;96.61;98558.38;10496278;28;20206;-57
2021/01/30 04:41:17;;;;;;;26.47;13.37;;;;;;;-2.01;96.84;98557.34;10496458;28;20232;-57
2021/01/30 04:46:39;;;;;;;31.10;15.07;;;;;;;-1.94;97.03;98545.72;10478317;28;20240;-57
2021/01/30 04:52:24;;;;;;;29.10;17.07;;;;;;;-1.85;96.31;98555.78;10495504;28;20210;-58
2021/01/30 04:57:53;;;;;;;42.00;19.17;;;;;;;-1.73;95.61;98558.78;10401212;28;20198;-57
2021/01/30 05:03:18;;;;;;;29.37;15.53;;;;;;;-1.65;95.86;98548.84;10477849;28;20175;-57
2021/01/30 05:08:40;;;;;;;24.47;14.50;;;;;;;-1.58;94.95;98547.69;10494095;28;20684;-57
2021/01/30 05:13:44;;;;;;;30.37;16.70;;;;;;;-1.55;95.38;98531.84;10477023;28;20785;-57
2021/01/30 05:19:06;;;;;;;31.30;15.40;;;;;;;-1.50;94.60;98545.56;10494652;28;20174;-57
2021/01/30 05:24:08;;;;;;;25.33;14.97;;;;;;;-1.49;94.43;98542.03;10476801;28;20174;-56
2021/01/30 05:29:39;;;;;;;28.87;14.70;;;;;;;-1.50;94.72;98541.19;10494943;28;20181;-56
2021/01/30 05:35:18;;;;;;;28.47;14.53;;;;;;;-1.50;94.33;98545.56;10465667;28;20276;-56
2021/01/30 05:40:40;;;;;;;25.67;13.77;;;;;;;-1.52;94.95;98529.09;10476149;28;20207;-57
2021/01/30 05:45:45;;;;;;;27.20;14.43;;;;;;;-1.49;94.26;98531.59;10494268;28;20192;-57
2021/01/30 05:50:45;;;;;;;27.90;15.17;;;;;;;-1.47;94.42;98529.75;10475902;28;20206;-58
2021/01/30 05:55:46;;;;;;;30.00;15.70;;;;;;;-1.48;94.51;98533.28;10494707;28;20661;-57
2021/01/30 06:00:46;;;;;;;21.67;13.57;;;;;;;-1.55;94.33;98531.84;10493610;28;20186;-58
2021/01/30 06:05:51;;;;;;;26.57;15.10;;;;;;;-1.59;94.43;98525.06;10494272;28;20167;-56
2021/01/30 06:11:15;;;;;;;22.20;12.20;;;;;;;-1.68;93.92;98530.66;10493500;28;20300;-57
2021/01/30 06:16:34;;;;;;;24.63;13.47;;;;;;;-1.93;94.98;98536.09;10482869;28;20227;-57
2021/01/30 06:21:34;;;;;;;26.03;13.77;;;;;;;-2.02;95.91;98537.34;10499485;28;20175;-57
2021/01/30 06:26:41;;;;;;;21.77;12.60;;;;;;;-2.07;95.90;98535.84;10501258;28;20589;-58
2021/01/30 06:31:42;;;;;;;25.67;13.90;;;;;;;-2.18;96.82;98533.69;10483715;28;20211;-57
2021/01/30 06:36:47;;;;;;;34.00;14.80;;;;;;;-2.25;97.21;98542.69;10482977;28;20171;-58
2021/01/30 06:41:52;;;;;;;30.93;15.63;;;;;;;-2.30;97.55;98537.66;10482873;28;20532;-58
2021/01/30 06:47:10;;;;;;;25.10;13.57;;;;;;;-2.38;97.62;98529.28;10482643;28;20651;-57
2021/01/30 06:52:15;;;;;;;25.60;13.67;;;;;;;-2.47;97.50;98534.03;10500863;28;20213;-57
2021/01/30 06:57:23;;;;;;;23.73;14.13;;;;;;;-2.48;98.11;98534.94;10482299;28;20240;-56
2021/01/30 07:02:33;;;;;;;26.50;14.40;;;;;;;-2.40;98.61;98538.06;10478529;28;20232;-55
2021/01/30 07:07:48;;;;;;;27.63;14.93;;;;;;;-2.27;98.35;98537.50;10512767;28;20823;-57
2021/01/30 07:13:04;;;;;;;25.97;15.20;;;;;;;-2.06;97.90;98530.56;10563859;28;20401;-56
2021/01/30 07:18:18;;;;;;;33.30;17.13;;;;;;;-1.79;97.44;98540.75;10527967;28;20585;-56
2021/01/30 07:23:41;;;;;;;31.43;16.97;;;;;;;-1.62;95.82;98535.66;10540897;28;20497;-61
2021/01/30 07:29:06;;;;;;;34.13;17.93;;;;;;;-1.52;95.26;98534.31;10522171;28;20512;-58
2021/01/30 07:34:40;;;;;;;35.63;18.53;;;;;;;-1.62;95.41;98535.66;10517382;28;20270;-64
2021/01/30 07:39:49;;;;;;;42.27;18.20;;;;;;;-1.77;95.48;98533.69;10480999;28;20202;-56
2021/01/30 07:45:09;;;;;;;32.67;16.97;;;;;;;-1.89;96.73;98532.44;10519473;28;20182;-57
2021/01/30 07:50:19;;;;;;;33.23;17.27;;;;;;;-1.89;96.96;98525.47;10537242;28;20298;-59
2021/01/30 07:55:19;;;;;;;34.67;16.63;;;;;;;-1.89;96.88;98532.44;10538298;28;20261;-56
2021/01/30 08:00:43;;;;;;;42.63;18.93;;;;;;;-1.86;96.90;98533.19;10516625;28;20265;-57
2021/01/30 08:05:55;;;;;;;61.70;34.75;;;;;;;-1.71;98.23;98526.44;10493711;28;20434;-57
2021/01/30 08:11:22;;;;;;;41.57;20.37;;;;;;;-1.73;98.75;98535.28;10495781;28;20231;-56
2021/01/30 08:16:44;;;;;;;31.50;18.60;;;;;;;-1.61;98.77;98532.97;10494594;28;20242;-57
2021/01/30 08:21:52;;;;;;;35.23;19.27;;;;;;;-1.50;98.39;98537.72;10479210;28;20198;-56
2021/01/30 08:27:14;;;;;;;42.30;20.60;;;;;;;-1.29;97.76;98534.16;10511003;28;20243;-56
2021/01/30 08:32:23;;;;;;;41.10;20.13;;;;;;;-1.03;96.18;98534.72;10520563;28;20265;-56
2021/01/30 08:37:27;;;;;;;42.07;20.40;;;;;;;-0.99;95.41;98528.44;10504094;28;20275;-57
2021/01/30 08:42:32;;;;;;;40.37;20.17;;;;;;;-0.92;94.71;98525.47;10509702;28;20745;-57
2021/01/30 08:47:36;;;;;;;40.40;20.23;;;;;;;-0.82;94.19;98533.72;10532160;28;20198;-57
2021/01/30 08:52:48;;;;;;;38.03;19.27;;;;;;;-0.83;93.85;98526.78;10507852;28;20214;-56
2021/01/30 08:58:09;;;;;;;34.87;17.73;;;;;;;-0.90;94.29;98530.63;10514590;28;20247;-55
2021/01/30 09:03:10;;;;;;;34.60;17.57;;;;;;;-0.87;94.02;98535.72;10534162;28;20178;-57
2021/01/30 09:08:10;;;;;;;22.47;13.30;;;;;;;-0.95;93.96;98543.91;10516785;28;20226;-56
2021/01/30 09:13:14;;;;;;;19.93;12.20;;;;;;;-0.92;94.24;98542.94;10511267;28;20303;-57
2021/01/30 09:18:22;;;;;;;19.73;12.37;;;;;;;-0.91;94.34;98544.63;10477624;28;20195;-59
2021/01/30 09:23:28;;;;;;;21.50;13.13;;;;;;;-0.58;93.72;98558.75;10477596;28;20193;-59
2021/01/30 09:28:30;;;;;;;22.73;13.27;;;;;;;-0.22;91.09;98552.66;10492513;28;20209;-57
2021/01/30 09:33:40;;;;;;;20.80;12.13;;;;;;;-0.23;90.54;98553.59;10494364;28;20241;-59
2021/01/30 09:38:46;;;;;;;22.97;12.23;;;;;;;-0.10;90.73;98554.69;10452640;28;20705;-57
2021/01/30 09:43:47;;;;;;;24.40;15.10;;;;;;;0.22;88.62;98559.19;10452474;28;20470;-55
2021/01/30 09:48:48;;;;;;;28.57;15.73;;;;;;;0.36;86.81;98548.81;10450299;28;20234;-66
2021/01/30 09:53:58;;;;;;;35.30;15.87;;;;;;;0.33;86.69;98564.75;10436937;28;20207;-66
2021/01/30 09:59:00;;;;;;;32.87;14.33;;;;;;;0.26;85.69;98563.34;10441172;28;20263;-59
2021/01/30 10:04:13;;;;;;;20.57;11.43;;;;;;;0.12;85.65;98562.38;10486273;28;20233;-58
2021/01/30 10:09:20;;;;;;;29.27;13.77;;;;;;;0.07;86.50;98575.69;10516858;28;20642;-57
2021/01/30 10:14:23;;;;;;;21.10;11.30;;;;;;;0.03;86.28;98574.13;10533670;28;20639;-66
2021/01/30 10:19:27;;;;;;;12.83;8.43;;;;;;;-0.05;86.16;98573.69;10521945;28;20257;-61
2021/01/30 10:24:30;;;;;;;12.33;7.80;;;;;;;-0.10;87.24;98565.19;10516612;28;20174;-59
2021/01/30 10:29:31;;;;;;;16.33;9.57;;;;;;;-0.05;87.41;98568.44;10516876;28;20225;-64
2021/01/30 10:34:39;;;;;;;15.57;9.80;;;;;;;0.05;86.34;98577.53;10537706;28;20179;-63
2021/01/30 10:39:53;;;;;;;16.13;9.53;;;;;;;0.12;86.77;98581.53;10524112;28;20211;-56
2021/01/30 10:45:00;;;;;;;25.57;11.17;;;;;;;0.24;87.09;98575.69;10529648;28;20178;-55
2021/01/30 10:50:23;;;;;;;16.47;9.43;;;;;;;0.41;86.82;98587.94;10539981;28;20209;-57
2021/01/30 10:55:31;;;;;;;19.77;11.90;;;;;;;0.58;86.42;98572.22;10541056;28;20643;-55
2021/01/30 11:00:31;;;;;;;24.37;13.60;;;;;;;0.65;85.18;98570.09;10542604;28;20255;-55
2021/01/30 11:05:32;;;;;;;21.00;11.37;;;;;;;0.63;85.08;98577.19;10540739;28;20579;-59
2021/01/30 11:10:47;;;;;;;17.70;9.67;;;;;;;0.40;85.99;98585.41;10538666;28;20588;-58
2021/01/30 11:15:48;;;;;;;19.00;11.47;;;;;;;0.00;88.29;98587.41;10523622;28;20260;-63
2021/01/30 11:20:49;;;;;;;20.00;11.37;;;;;;;-0.11;89.88;98589.69;10540986;28;20178;-55
2021/01/30 11:25:50;;;;;;;22.23;12.13;;;;;;;-0.07;91.93;98596.50;10540982;28;20592;-59
2021/01/30 11:30:50;;;;;;;19.77;10.43;;;;;;;0.11;92.20;98605.25;10540732;28;20217;-56
2021/01/30 11:35:54;;;;;;;20.70;11.60;;;;;;;0.15;90.44;98589.25;10522673;28;20178;-54
2021/01/30 11:40:57;;;;;;;20.27;12.17;;;;;;;0.24;89.42;98595.84;10541155;28;20170;-54
